Portada
METAR-TAF:

METAR-TAF

Aeropuertos :

Cannes, Francia

latitud: 43-33N, longitud: 006-57E, altitud: 3 m

Observación

El informe se hizo hace 32 minutos, a las 12:30 UTC
Viento 6 kt del sur-sureste
Temperatura 19°C
Humedad 30%
Presión 1020 hPa
Visibilidad 10 km o más
sin nubes por debajo de 1500 m y sin presencia de cumulonimbus.

METAR: LFMD 041230Z AUTO 16006KT CAVOK 19/01 Q1020

Hora: 15:02 (13:02 UTC)


TAF: falta

Observaciones y pronósticos meteorológicos de más de 4000 aeropuertos (mensajes METAR y TAF).

Los puntos amarillos y rojos representan las estaciones disponibles.

Ponga el ratón en el punto deseado para ver el nombre de la estación.

Haga clic para ver las observaciones y los pronósticos meteorológicos.

Para cambiar el mapa : haga clic en los botones verdes con una cruz de color negro para hacer un zoom, en el botón verde con un guión para alejar o en las flechas verdes para mapas adyacentes.


METAR-TAF: